sensor_id;sensor_type;location;lat;lon;timestamp;pressure;altitude;pressure_sealevel;temperature;humidity
41140;BME280;26881;48.784;9.192;2023-09-12T00:04:37;98222.66;;;20.13;81.89
41140;BME280;26881;48.784;9.192;2023-09-12T00:09:59;98213.06;;;20.20;81.68
41140;BME280;26881;48.784;9.192;2023-09-12T00:15:21;98207.69;;;20.04;82.79
41140;BME280;26881;48.784;9.192;2023-09-12T00:20:43;98208.97;;;19.91;83.59
41140;BME280;26881;48.784;9.192;2023-09-12T00:26:04;98198.34;;;19.91;83.75
41140;BME280;26881;48.784;9.192;2023-09-12T00:31:26;98193.84;;;19.92;84.17
41140;BME280;26881;48.784;9.192;2023-09-12T00:36:48;98199.78;;;19.77;84.78
41140;BME280;26881;48.784;9.192;2023-09-12T00:42:10;98195.00;;;19.89;84.66
41140;BME280;26881;48.784;9.192;2023-09-12T00:47:32;98204.41;;;19.75;85.50
41140;BME280;26881;48.784;9.192;2023-09-12T00:52:55;98196.75;;;19.72;85.77
41140;BME280;26881;48.784;9.192;2023-09-12T00:58:18;98207.72;;;19.51;87.57
41140;BME280;26881;48.784;9.192;2023-09-12T01:03:40;98198.91;;;19.51;87.78
41140;BME280;26881;48.784;9.192;2023-09-12T01:09:02;98195.06;;;19.45;88.14
41140;BME280;26881;48.784;9.192;2023-09-12T01:14:24;98193.00;;;19.31;89.48
41140;BME280;26881;48.784;9.192;2023-09-12T01:19:46;98184.72;;;19.34;89.32
41140;BME280;26881;48.784;9.192;2023-09-12T01:25:24;98178.84;;;19.48;88.30
41140;BME280;26881;48.784;9.192;2023-09-12T01:30:58;98192.16;;;19.30;89.25
41140;BME280;26881;48.784;9.192;2023-09-12T01:36:22;98197.06;;;19.25;89.54
41140;BME280;26881;48.784;9.192;2023-09-12T01:41:45;98196.09;;;19.26;89.97
41140;BME280;26881;48.784;9.192;2023-09-12T01:47:10;98193.59;;;19.25;89.90
41140;BME280;26881;48.784;9.192;2023-09-12T01:52:32;98198.66;;;19.36;88.60
41140;BME280;26881;48.784;9.192;2023-09-12T01:57:54;98194.25;;;19.19;89.58
41140;BME280;26881;48.784;9.192;2023-09-12T02:03:18;98192.25;;;19.21;89.84
41140;BME280;26881;48.784;9.192;2023-09-12T02:08:40;98189.72;;;18.93;91.57
41140;BME280;26881;48.784;9.192;2023-09-12T02:14:02;98184.03;;;18.88;91.96
41140;BME280;26881;48.784;9.192;2023-09-12T02:19:24;98186.16;;;18.84;92.71
41140;BME280;26881;48.784;9.192;2023-09-12T02:24:46;98194.81;;;18.86;93.04
41140;BME280;26881;48.784;9.192;2023-09-12T02:30:08;98188.13;;;19.00;91.76
41140;BME280;26881;48.784;9.192;2023-09-12T02:35:31;98178.25;;;19.10;90.69
41140;BME280;26881;48.784;9.192;2023-09-12T02:40:53;98176.09;;;18.88;92.37
41140;BME280;26881;48.784;9.192;2023-09-12T02:46:16;98157.47;;;18.98;92.36
41140;BME280;26881;48.784;9.192;2023-09-12T02:51:39;98164.88;;;18.94;92.48
41140;BME280;26881;48.784;9.192;2023-09-12T02:57:01;98159.25;;;18.97;92.45
41140;BME280;26881;48.784;9.192;2023-09-12T03:02:23;98161.63;;;19.00;92.34
41140;BME280;26881;48.784;9.192;2023-09-12T03:07:45;98168.66;;;18.73;93.46
41140;BME280;26881;48.784;9.192;2023-09-12T03:13:06;98163.19;;;18.57;94.78
41140;BME280;26881;48.784;9.192;2023-09-12T03:18:54;98164.81;;;18.68;94.28
41140;BME280;26881;48.784;9.192;2023-09-12T03:24:18;98167.44;;;18.68;94.35
41140;BME280;26881;48.784;9.192;2023-09-12T03:29:40;98172.22;;;18.64;94.69
41140;BME280;26881;48.784;9.192;2023-09-12T03:35:02;98160.78;;;18.64;94.87
41140;BME280;26881;48.784;9.192;2023-09-12T03:40:24;98163.81;;;18.69;94.17
41140;BME280;26881;48.784;9.192;2023-09-12T03:45:46;98161.25;;;18.59;94.51
41140;BME280;26881;48.784;9.192;2023-09-12T03:51:08;98159.19;;;18.53;94.80
41140;BME280;26881;48.784;9.192;2023-09-12T03:56:30;98153.97;;;18.43;96.15
41140;BME280;26881;48.784;9.192;2023-09-12T04:01:52;98155.03;;;18.32;96.85
41140;BME280;26881;48.784;9.192;2023-09-12T04:07:14;98153.97;;;18.25;96.97
41140;BME280;26881;48.784;9.192;2023-09-12T04:12:36;98156.75;;;18.24;96.65
41140;BME280;26881;48.784;9.192;2023-09-12T04:17:58;98166.34;;;18.25;97.36
41140;BME280;26881;48.784;9.192;2023-09-12T04:23:19;98158.28;;;18.26;97.52
41140;BME280;26881;48.784;9.192;2023-09-12T04:28:42;98161.91;;;18.25;97.38
41140;BME280;26881;48.784;9.192;2023-09-12T04:34:05;98156.94;;;18.40;95.98
41140;BME280;26881;48.784;9.192;2023-09-12T04:39:27;98149.44;;;18.36;95.97
41140;BME280;26881;48.784;9.192;2023-09-12T04:44:49;98145.66;;;18.38;96.08
41140;BME280;26881;48.784;9.192;2023-09-12T04:50:10;98142.63;;;18.51;94.57
41140;BME280;26881;48.784;9.192;2023-09-12T04:55:35;98147.63;;;18.54;94.58
41140;BME280;26881;48.784;9.192;2023-09-12T05:00:57;98154.41;;;18.39;95.31
41140;BME280;26881;48.784;9.192;2023-09-12T05:06:19;98155.47;;;18.46;94.96
41140;BME280;26881;48.784;9.192;2023-09-12T05:11:41;98160.50;;;18.49;94.38
41140;BME280;26881;48.784;9.192;2023-09-12T05:17:03;98165.34;;;18.53;93.56
41140;BME280;26881;48.784;9.192;2023-09-12T05:22:25;98168.66;;;18.56;93.67
41140;BME280;26881;48.784;9.192;2023-09-12T05:27:47;98156.63;;;18.61;92.88
41140;BME280;26881;48.784;9.192;2023-09-12T05:33:09;98154.28;;;18.58;92.92
41140;BME280;26881;48.784;9.192;2023-09-12T05:38:31;98171.00;;;18.59;93.45
41140;BME280;26881;48.784;9.192;2023-09-12T05:43:53;98176.53;;;18.65;93.76
41140;BME280;26881;48.784;9.192;2023-09-12T05:49:14;98169.59;;;18.82;92.48
41140;BME280;26881;48.784;9.192;2023-09-12T05:54:37;98172.25;;;18.82;92.53
41140;BME280;26881;48.784;9.192;2023-09-12T05:59:59;98167.34;;;19.13;91.62
41140;BME280;26881;48.784;9.192;2023-09-12T06:05:26;98186.75;;;19.40;89.72
41140;BME280;26881;48.784;9.192;2023-09-12T06:10:48;98184.88;;;19.58;87.73
41140;BME280;26881;48.784;9.192;2023-09-12T06:16:10;98183.94;;;19.68;86.48
41140;BME280;26881;48.784;9.192;2023-09-12T06:21:32;98181.13;;;19.69;85.82
41140;BME280;26881;48.784;9.192;2023-09-12T06:26:54;98191.66;;;19.79;84.58
41140;BME280;26881;48.784;9.192;2023-09-12T06:32:17;98185.81;;;20.10;83.85
41140;BME280;26881;48.784;9.192;2023-09-12T06:37:39;98187.38;;;20.37;80.82
41140;BME280;26881;48.784;9.192;2023-09-12T06:43:01;98199.72;;;20.54;79.67
41140;BME280;26881;48.784;9.192;2023-09-12T06:48:24;98192.78;;;20.70;78.57
41140;BME280;26881;48.784;9.192;2023-09-12T06:53:46;98208.91;;;20.84;77.42
41140;BME280;26881;48.784;9.192;2023-09-12T06:59:10;98214.22;;;20.68;77.71
41140;BME280;26881;48.784;9.192;2023-09-12T07:04:33;98209.56;;;20.95;76.32
41140;BME280;26881;48.784;9.192;2023-09-12T07:09:54;98218.88;;;21.07;75.82
41140;BME280;26881;48.784;9.192;2023-09-12T07:15:28;98220.03;;;21.21;74.36
41140;BME280;26881;48.784;9.192;2023-09-12T07:20:57;98231.50;;;21.62;73.00
41140;BME280;26881;48.784;9.192;2023-09-12T07:26:19;98236.47;;;21.74;72.50
41140;BME280;26881;48.784;9.192;2023-09-12T07:31:41;98240.56;;;22.01;71.62
41140;BME280;26881;48.784;9.192;2023-09-12T07:37:03;98236.69;;;22.12;70.37
41140;BME280;26881;48.784;9.192;2023-09-12T07:42:25;98237.38;;;22.22;70.01
41140;BME280;26881;48.784;9.192;2023-09-12T07:47:47;98228.66;;;22.28;69.60
41140;BME280;26881;48.784;9.192;2023-09-12T07:53:10;98239.69;;;22.56;69.94
41140;BME280;26881;48.784;9.192;2023-09-12T07:58:32;98222.00;;;23.32;67.51
41140;BME280;26881;48.784;9.192;2023-09-12T08:03:53;98226.81;;;23.90;65.39
41140;BME280;26881;48.784;9.192;2023-09-12T08:09:16;98217.63;;;24.29;63.24
41140;BME280;26881;48.784;9.192;2023-09-12T08:14:38;98217.50;;;24.67;62.00
41140;BME280;26881;48.784;9.192;2023-09-12T08:20:00;98226.53;;;24.87;61.84
41140;BME280;26881;48.784;9.192;2023-09-12T08:25:22;98218.41;;;25.45;60.03
41140;BME280;26881;48.784;9.192;2023-09-12T08:30:46;98215.13;;;26.06;55.67
41140;BME280;26881;48.784;9.192;2023-09-12T08:36:08;98221.84;;;25.89;54.23
41140;BME280;26881;48.784;9.192;2023-09-12T08:41:30;98225.91;;;25.07;56.93
41140;BME280;26881;48.784;9.192;2023-09-12T08:46:52;98216.69;;;26.97;52.12
41140;BME280;26881;48.784;9.192;2023-09-12T08:52:14;98211.94;;;29.71;45.37
41140;BME280;26881;48.784;9.192;2023-09-12T08:57:39;98204.75;;;30.20;44.22
41140;BME280;26881;48.784;9.192;2023-09-12T09:03:02;98206.31;;;30.76;43.34
41140;BME280;26881;48.784;9.192;2023-09-12T09:08:25;98200.69;;;31.08;42.37
41140;BME280;26881;48.784;9.192;2023-09-12T09:13:47;98209.16;;;31.23;42.89
41140;BME280;26881;48.784;9.192;2023-09-12T09:19:09;98204.25;;;31.67;41.47
41140;BME280;26881;48.784;9.192;2023-09-12T09:24:32;98192.75;;;32.36;39.62
41140;BME280;26881;48.784;9.192;2023-09-12T09:29:54;98191.88;;;31.95;39.83
41140;BME280;26881;48.784;9.192;2023-09-12T09:35:16;98176.59;;;32.99;38.11
41140;BME280;26881;48.784;9.192;2023-09-12T09:40:38;98164.84;;;33.61;37.07
41140;BME280;26881;48.784;9.192;2023-09-12T09:46:00;98174.00;;;32.46;38.95
41140;BME280;26881;48.784;9.192;2023-09-12T09:51:22;98162.19;;;32.81;38.23
41140;BME280;26881;48.784;9.192;2023-09-12T09:56:54;98159.66;;;33.59;36.58
41140;BME280;26881;48.784;9.192;2023-09-12T10:02:19;98160.09;;;33.90;35.75
41140;BME280;26881;48.784;9.192;2023-09-12T10:07:47;98141.44;;;34.97;34.02
41140;BME280;26881;48.784;9.192;2023-09-12T10:13:10;98143.28;;;34.91;33.06
41140;BME280;26881;48.784;9.192;2023-09-12T10:18:35;98136.72;;;34.87;32.79
41140;BME280;26881;48.784;9.192;2023-09-12T10:24:03;98137.50;;;34.55;33.76
41140;BME280;26881;48.784;9.192;2023-09-12T10:29:25;98147.88;;;33.70;35.39
41140;BME280;26881;48.784;9.192;2023-09-12T10:34:50;98147.94;;;33.75;34.88
41140;BME280;26881;48.784;9.192;2023-09-12T10:40:14;98141.28;;;34.81;33.14
41140;BME280;26881;48.784;9.192;2023-09-12T10:45:37;98142.66;;;35.11;32.55
41140;BME280;26881;48.784;9.192;2023-09-12T10:51:00;98137.81;;;35.18;30.99
41140;BME280;26881;48.784;9.192;2023-09-12T10:56:22;98143.66;;;35.42;31.08
41140;BME280;26881;48.784;9.192;2023-09-12T11:01:51;98141.69;;;35.75;30.85
41140;BME280;26881;48.784;9.192;2023-09-12T11:14:05;98123.31;;;35.50;30.72
41140;BME280;26881;48.784;9.192;2023-09-12T11:19:27;98125.38;;;35.75;31.26
41140;BME280;26881;48.784;9.192;2023-09-12T11:24:49;98122.34;;;36.50;29.47
41140;BME280;26881;48.784;9.192;2023-09-12T11:30:12;98112.50;;;36.23;29.56
41140;BME280;26881;48.784;9.192;2023-09-12T11:35:37;98116.97;;;35.77;30.51
41140;BME280;26881;48.784;9.192;2023-09-12T11:41:00;98102.63;;;36.02;30.63
41140;BME280;26881;48.784;9.192;2023-09-12T11:46:22;98088.59;;;36.56;30.45
41140;BME280;26881;48.784;9.192;2023-09-12T11:51:51;98084.28;;;36.86;29.13
41140;BME280;26881;48.784;9.192;2023-09-12T11:57:14;98083.72;;;36.63;28.50
41140;BME280;26881;48.784;9.192;2023-09-12T12:02:36;98084.78;;;36.83;28.48
41140;BME280;26881;48.784;9.192;2023-09-12T12:07:58;98070.91;;;38.01;27.44
41140;BME280;26881;48.784;9.192;2023-09-12T12:13:40;98078.00;;;37.91;27.34
41140;BME280;26881;48.784;9.192;2023-09-12T12:19:03;98071.50;;;38.71;26.32
41140;BME280;26881;48.784;9.192;2023-09-12T12:24:25;98069.38;;;39.27;25.46
41140;BME280;26881;48.784;9.192;2023-09-12T12:29:47;98052.78;;;39.66;23.63
41140;BME280;26881;48.784;9.192;2023-09-12T12:35:09;98040.09;;;40.32;23.59
41140;BME280;26881;48.784;9.192;2023-09-12T12:40:51;98033.78;;;40.51;22.50
41140;BME280;26881;48.784;9.192;2023-09-12T12:46:13;98038.66;;;41.19;21.11
41140;BME280;26881;48.784;9.192;2023-09-12T12:51:35;98032.38;;;42.56;20.64
41140;BME280;26881;48.784;9.192;2023-09-12T12:56:57;98025.66;;;42.39;19.87
41140;BME280;26881;48.784;9.192;2023-09-12T13:02:18;98026.69;;;43.46;18.71
41140;BME280;26881;48.784;9.192;2023-09-12T13:07:41;98011.88;;;43.82;18.75
41140;BME280;26881;48.784;9.192;2023-09-12T13:13:03;98007.94;;;44.70;17.30
41140;BME280;26881;48.784;9.192;2023-09-12T13:18:26;97997.63;;;44.49;17.78
41140;BME280;26881;48.784;9.192;2023-09-12T13:23:48;97995.84;;;44.10;17.83
41140;BME280;26881;48.784;9.192;2023-09-12T13:29:10;98008.38;;;42.25;19.42
41140;BME280;26881;48.784;9.192;2023-09-12T13:34:32;98000.50;;;40.90;20.69
41140;BME280;26881;48.784;9.192;2023-09-12T13:39:54;98005.03;;;40.81;21.12
41140;BME280;26881;48.784;9.192;2023-09-12T13:45:16;97998.69;;;41.41;20.18
41140;BME280;26881;48.784;9.192;2023-09-12T13:50:38;98005.97;;;41.87;19.11
41140;BME280;26881;48.784;9.192;2023-09-12T13:56:00;97996.91;;;42.45;18.50
41140;BME280;26881;48.784;9.192;2023-09-12T14:01:23;97988.16;;;42.43;19.19
41140;BME280;26881;48.784;9.192;2023-09-12T14:06:55;97976.69;;;42.41;18.69
41140;BME280;26881;48.784;9.192;2023-09-12T14:12:18;97976.94;;;42.93;18.70
41140;BME280;26881;48.784;9.192;2023-09-12T14:17:48;97987.88;;;42.31;19.57
41140;BME280;26881;48.784;9.192;2023-09-12T14:23:17;98001.09;;;42.43;19.85
41140;BME280;26881;48.784;9.192;2023-09-12T14:28:39;98001.69;;;39.99;21.09
41140;BME280;26881;48.784;9.192;2023-09-12T14:34:02;98006.53;;;38.29;23.37
41140;BME280;26881;48.784;9.192;2023-09-12T14:39:25;98006.56;;;36.94;26.25
41140;BME280;26881;48.784;9.192;2023-09-12T14:44:48;98016.97;;;35.41;28.07
41140;BME280;26881;48.784;9.192;2023-09-12T14:50:10;98029.53;;;34.68;29.20
41140;BME280;26881;48.784;9.192;2023-09-12T14:55:32;98023.25;;;34.35;30.86
41140;BME280;26881;48.784;9.192;2023-09-12T15:00:54;98026.81;;;34.08;31.24
41140;BME280;26881;48.784;9.192;2023-09-12T15:06:16;98036.16;;;33.29;33.06
41140;BME280;26881;48.784;9.192;2023-09-12T15:11:41;98030.69;;;33.46;33.32
41140;BME280;26881;48.784;9.192;2023-09-12T15:17:03;98026.94;;;33.30;33.50
41140;BME280;26881;48.784;9.192;2023-09-12T15:22:25;98031.03;;;33.11;34.54
41140;BME280;26881;48.784;9.192;2023-09-12T15:27:47;98030.03;;;33.00;35.09
41140;BME280;26881;48.784;9.192;2023-09-12T15:33:09;98027.38;;;32.66;35.11
41140;BME280;26881;48.784;9.192;2023-09-12T15:38:31;98011.22;;;32.26;35.26
41140;BME280;26881;48.784;9.192;2023-09-12T15:43:53;98018.66;;;31.73;35.32
41140;BME280;26881;48.784;9.192;2023-09-12T15:49:32;98032.69;;;31.46;37.27
41140;BME280;26881;48.784;9.192;2023-09-12T15:54:53;98022.50;;;31.25;37.13
41140;BME280;26881;48.784;9.192;2023-09-12T16:00:16;98015.25;;;31.02;37.91
41140;BME280;26881;48.784;9.192;2023-09-12T16:05:38;98016.19;;;30.84;38.02
41140;BME280;26881;48.784;9.192;2023-09-12T16:11:00;98015.59;;;30.70;37.88
41140;BME280;26881;48.784;9.192;2023-09-12T16:16:22;98009.44;;;30.63;39.56
41140;BME280;26881;48.784;9.192;2023-09-12T16:21:44;98015.00;;;30.68;40.40
41140;BME280;26881;48.784;9.192;2023-09-12T16:27:06;97996.53;;;30.65;39.39
41140;BME280;26881;48.784;9.192;2023-09-12T16:32:31;97994.09;;;30.63;40.69
41140;BME280;26881;48.784;9.192;2023-09-12T16:37:56;97984.47;;;30.67;39.44
41140;BME280;26881;48.784;9.192;2023-09-12T16:43:19;97991.75;;;30.67;36.68
41140;BME280;26881;48.784;9.192;2023-09-12T16:48:41;98004.28;;;30.50;37.32
41140;BME280;26881;48.784;9.192;2023-09-12T16:54:04;97998.78;;;30.44;36.97
41140;BME280;26881;48.784;9.192;2023-09-12T16:59:26;98004.44;;;30.24;38.66
41140;BME280;26881;48.784;9.192;2023-09-12T17:04:48;98020.09;;;30.04;40.74
41140;BME280;26881;48.784;9.192;2023-09-12T17:10:10;98037.72;;;29.39;41.54
41140;BME280;26881;48.784;9.192;2023-09-12T17:15:32;98057.41;;;28.40;42.85
41140;BME280;26881;48.784;9.192;2023-09-12T17:20:55;98051.72;;;27.91;43.79
41140;BME280;26881;48.784;9.192;2023-09-12T17:26:17;98061.66;;;27.77;43.95
41140;BME280;26881;48.784;9.192;2023-09-12T17:31:39;98059.13;;;27.37;44.80
41140;BME280;26881;48.784;9.192;2023-09-12T17:37:01;98072.56;;;27.17;44.81
41140;BME280;26881;48.784;9.192;2023-09-12T17:42:24;98053.41;;;26.87;44.77
41140;BME280;26881;48.784;9.192;2023-09-12T17:47:46;98049.91;;;26.73;44.05
41140;BME280;26881;48.784;9.192;2023-09-12T17:53:08;98057.56;;;26.76;43.29
41140;BME280;26881;48.784;9.192;2023-09-12T17:58:30;98061.47;;;26.67;42.68
41140;BME280;26881;48.784;9.192;2023-09-12T18:03:52;98064.16;;;26.60;42.97
41140;BME280;26881;48.784;9.192;2023-09-12T18:09:14;98054.19;;;26.41;43.63
41140;BME280;26881;48.784;9.192;2023-09-12T18:14:36;98065.31;;;26.31;44.49
41140;BME280;26881;48.784;9.192;2023-09-12T18:19:58;98075.38;;;26.09;44.95
41140;BME280;26881;48.784;9.192;2023-09-12T18:25:19;98074.94;;;26.05;45.45
41140;BME280;26881;48.784;9.192;2023-09-12T18:30:41;98084.19;;;25.96;46.19
41140;BME280;26881;48.784;9.192;2023-09-12T18:36:04;98097.56;;;25.90;45.83
41140;BME280;26881;48.784;9.192;2023-09-12T18:41:27;98100.66;;;25.86;46.97
41140;BME280;26881;48.784;9.192;2023-09-12T18:46:49;98117.69;;;25.79;47.48
41140;BME280;26881;48.784;9.192;2023-09-12T18:52:11;98117.44;;;25.67;47.40
41140;BME280;26881;48.784;9.192;2023-09-12T18:57:33;98118.81;;;25.56;47.26
41140;BME280;26881;48.784;9.192;2023-09-12T19:02:55;98122.88;;;25.46;48.44
41140;BME280;26881;48.784;9.192;2023-09-12T19:08:17;98128.56;;;25.36;48.81
41140;BME280;26881;48.784;9.192;2023-09-12T19:13:39;98134.28;;;25.26;48.91
41140;BME280;26881;48.784;9.192;2023-09-12T19:19:04;98136.78;;;25.06;49.73
41140;BME280;26881;48.784;9.192;2023-09-12T19:24:26;98136.78;;;25.06;50.38
41140;BME280;26881;48.784;9.192;2023-09-12T19:29:54;98133.84;;;25.01;50.51
41140;BME280;26881;48.784;9.192;2023-09-12T19:35:16;98134.81;;;24.93;49.94
41140;BME280;26881;48.784;9.192;2023-09-12T19:40:38;98133.34;;;24.91;50.29
41140;BME280;26881;48.784;9.192;2023-09-12T19:46:05;98134.75;;;24.87;49.88
41140;BME280;26881;48.784;9.192;2023-09-12T19:51:27;98140.41;;;24.98;47.68
41140;BME280;26881;48.784;9.192;2023-09-12T19:56:49;98133.59;;;24.96;47.60
41140;BME280;26881;48.784;9.192;2023-09-12T20:02:12;98145.63;;;25.07;46.99
41140;BME280;26881;48.784;9.192;2023-09-12T20:07:33;98149.31;;;25.06;46.91
41140;BME280;26881;48.784;9.192;2023-09-12T20:12:55;98154.44;;;25.00;46.16
41140;BME280;26881;48.784;9.192;2023-09-12T20:18:17;98148.78;;;24.89;47.66
41140;BME280;26881;48.784;9.192;2023-09-12T20:23:39;98161.41;;;24.73;48.11
41140;BME280;26881;48.784;9.192;2023-09-12T20:29:01;98179.53;;;24.42;50.70
41140;BME280;26881;48.784;9.192;2023-09-12T20:34:23;98188.88;;;24.31;51.37
41140;BME280;26881;48.784;9.192;2023-09-12T20:39:45;98184.84;;;24.20;52.04
41140;BME280;26881;48.784;9.192;2023-09-12T20:45:09;98197.50;;;24.11;52.66
41140;BME280;26881;48.784;9.192;2023-09-12T20:50:31;98208.91;;;24.05;53.73
41140;BME280;26881;48.784;9.192;2023-09-12T20:55:53;98214.09;;;23.92;53.83
41140;BME280;26881;48.784;9.192;2023-09-12T21:01:15;98205.31;;;23.68;53.57
41140;BME280;26881;48.784;9.192;2023-09-12T21:06:37;98207.53;;;23.80;51.37
41140;BME280;26881;48.784;9.192;2023-09-12T21:11:59;98210.50;;;23.85;50.93
41140;BME280;26881;48.784;9.192;2023-09-12T21:17:26;98221.81;;;23.87;51.17
41140;BME280;26881;48.784;9.192;2023-09-12T21:22:48;98224.47;;;23.87;50.91
41140;BME280;26881;48.784;9.192;2023-09-12T21:28:09;98229.63;;;23.73;51.68
41140;BME280;26881;48.784;9.192;2023-09-12T21:33:32;98233.94;;;23.60;52.02
41140;BME280;26881;48.784;9.192;2023-09-12T21:38:54;98232.34;;;23.50;52.16
41140;BME280;26881;48.784;9.192;2023-09-12T21:44:16;98234.09;;;23.43;52.39
41140;BME280;26881;48.784;9.192;2023-09-12T21:49:38;98259.22;;;23.49;51.73
41140;BME280;26881;48.784;9.192;2023-09-12T21:55:00;98270.78;;;23.41;51.93
41140;BME280;26881;48.784;9.192;2023-09-12T22:00:22;98272.00;;;23.39;51.99
41140;BME280;26881;48.784;9.192;2023-09-12T22:05:45;98279.06;;;23.31;52.50
41140;BME280;26881;48.784;9.192;2023-09-12T22:11:12;98284.16;;;23.18;53.13
41140;BME280;26881;48.784;9.192;2023-09-12T22:16:34;98301.88;;;23.11;53.17
41140;BME280;26881;48.784;9.192;2023-09-12T22:21:56;98291.25;;;23.03;53.40
41140;BME280;26881;48.784;9.192;2023-09-12T22:27:18;98288.78;;;22.93;53.48
41140;BME280;26881;48.784;9.192;2023-09-12T22:32:40;98292.25;;;23.02;52.66
41140;BME280;26881;48.784;9.192;2023-09-12T22:38:02;98296.94;;;23.00;53.06
41140;BME280;26881;48.784;9.192;2023-09-12T22:43:24;98297.44;;;23.03;52.88
41140;BME280;26881;48.784;9.192;2023-09-12T22:48:45;98298.91;;;22.98;53.78
41140;BME280;26881;48.784;9.192;2023-09-12T22:54:07;98302.56;;;23.05;54.25
41140;BME280;26881;48.784;9.192;2023-09-12T22:59:30;98302.00;;;22.86;54.57
41140;BME280;26881;48.784;9.192;2023-09-12T23:04:52;98313.78;;;22.61;55.76
41140;BME280;26881;48.784;9.192;2023-09-12T23:10:14;98316.44;;;22.61;56.07
41140;BME280;26881;48.784;9.192;2023-09-12T23:15:37;98327.16;;;22.52;56.53
41140;BME280;26881;48.784;9.192;2023-09-12T23:21:01;98332.25;;;22.70;55.47
41140;BME280;26881;48.784;9.192;2023-09-12T23:26:24;98341.88;;;22.80;54.70
41140;BME280;26881;48.784;9.192;2023-09-12T23:31:46;98341.16;;;22.86;54.88
41140;BME280;26881;48.784;9.192;2023-09-12T23:37:09;98344.31;;;22.89;55.02
41140;BME280;26881;48.784;9.192;2023-09-12T23:42:31;98353.25;;;23.05;55.28
41140;BME280;26881;48.784;9.192;2023-09-12T23:47:53;98361.28;;;22.97;55.89
41140;BME280;26881;48.784;9.192;2023-09-12T23:53:14;98391.25;;;23.07;56.35
41140;BME280;26881;48.784;9.192;2023-09-12T23:58:37;98403.28;;;23.03;57.77
